Time;durP1;ratioP1;P1;durP2;ratioP2;P2;SDS_P1;SDS_P2;PMS_P1;PMS_P2;Temp;Humidity;BMP_temperature;BMP_pressure;BME280_temperature;BME280_humidity;BME280_pressure;Samples;Min_cycle;Max_cycle;Signal;HPM_P1;HPM_P2
2023/04/07 00:01:57;;;;;;;;;;;6.50;80.20;;;;;;6158150;23;19905;-95
2023/04/07 00:04:22;;;;;;;;;;;6.50;81.10;;;;;;6157821;23;19904;-94
2023/04/07 00:06:48;;;;;;;;;;;6.50;81.00;;;;;;6131731;23;20271;-95
2023/04/07 00:09:14;;;;;;;;;;;6.60;80.90;;;;;;6156212;23;19904;-95
2023/04/07 00:11:40;;;;;;;;;;;6.60;80.90;;;;;;6158075;23;19987;-94
2023/04/07 00:14:05;;;;;;;;;;;6.50;79.90;;;;;;6157764;23;20241;-95
2023/04/07 00:16:31;;;;;;;;;;;6.40;80.70;;;;;;6158407;23;19930;-96
2023/04/07 00:18:56;;;;;;;;;;;6.40;80.70;;;;;;6158083;23;19912;-95
2023/04/07 00:21:22;;;;;;;;;;;6.30;80.70;;;;;;6158247;23;19904;-95
2023/04/07 00:23:47;;;;;;;;;;;6.20;80.90;;;;;;6157862;23;19958;-94
2023/04/07 00:26:13;;;;;;;;;;;6.10;80.00;;;;;;6158110;23;19939;-96
2023/04/07 00:28:39;;;;;;;;;;;6.00;80.00;;;;;;6157580;23;19912;-95
2023/04/07 00:31:04;;;;;;;;;;;6.10;80.20;;;;;;6157477;23;19905;-94
2023/04/07 00:33:30;;;;;;;;;;;6.10;81.00;;;;;;6157908;23;19904;-94
2023/04/07 00:35:57;;;;;;;;;;;6.10;82.10;;;;;;6157381;23;20341;-94
2023/04/07 00:38:22;;;;;;;;;;;6.10;82.70;;;;;;6158139;23;19913;-95
2023/04/07 00:40:48;;;;;;;;;;;6.00;82.60;;;;;;6157507;23;20243;-94
2023/04/07 00:43:14;;;;;;;;;;;6.00;81.30;;;;;;6157414;23;20212;-95
2023/04/07 00:45:39;;;;;;;;;;;5.70;81.40;;;;;;6157600;23;19909;-94
2023/04/07 00:48:05;;;;;;;;;;;5.70;81.00;;;;;;6157110;23;19905;-95
2023/04/07 00:50:30;;;;;;;;;;;5.50;80.70;;;;;;6157989;23;20365;-94
2023/04/07 00:52:56;;;;;;;;;;;5.50;80.90;;;;;;6157417;23;19905;-95
2023/04/07 00:55:22;;;;;;;;;;;5.50;81.30;;;;;;6158046;23;19912;-94
2023/04/07 00:57:47;;;;;;;;;;;5.40;82.10;;;;;;6158158;23;19905;-95
2023/04/07 01:00:14;;;;;;;;;;;5.30;82.50;;;;;;6158079;23;19904;-95
2023/04/07 01:02:46;;;;;;;;;;;5.30;82.30;;;;;;6157000;23;19931;-94
2023/04/07 01:05:17;;;;;;;;;;;5.30;82.10;;;;;;6157651;23;19908;-94
2023/04/07 01:07:59;;;;;;;;;;;5.30;81.70;;;;;;6157143;23;19904;-95
2023/04/07 01:10:45;;;;;;;;;;;5.30;81.60;;;;;;6157479;23;19905;-94
2023/04/07 01:13:11;;;;;;;;;;;5.30;81.80;;;;;;6156389;23;19977;-94
2023/04/07 01:15:37;;;;;;;;;;;5.20;82.40;;;;;;6157264;23;20315;-94
2023/04/07 01:18:09;;;;;;;;;;;5.10;83.50;;;;;;6157950;23;19905;-95
2023/04/07 01:20:35;;;;;;;;;;;5.10;84.10;;;;;;6131498;23;19905;-94
2023/04/07 01:23:03;;;;;;;;;;;5.10;84.20;;;;;;6157515;23;19935;-95
2023/04/07 01:25:31;;;;;;;;;;;5.00;84.00;;;;;;6156918;23;19912;-96
2023/04/07 01:27:59;;;;;;;;;;;5.00;83.70;;;;;;6157196;23;19905;-96
2023/04/07 01:30:27;;;;;;;;;;;5.00;83.40;;;;;;6156925;23;19911;-95
2023/04/07 01:32:55;;;;;;;;;;;5.00;83.00;;;;;;6156973;23;19947;-95
2023/04/07 01:35:21;;;;;;;;;;;4.80;84.00;;;;;;6157527;23;19905;-95
2023/04/07 01:37:48;;;;;;;;;;;4.90;83.80;;;;;;6157263;23;19911;-94
2023/04/07 01:40:14;;;;;;;;;;;4.70;83.90;;;;;;6157372;23;19965;-95
2023/04/07 01:42:40;;;;;;;;;;;4.70;84.10;;;;;;6130544;23;19908;-96
2023/04/07 01:45:07;;;;;;;;;;;4.70;84.20;;;;;;6156688;23;19923;-95
2023/04/07 01:47:33;;;;;;;;;;;4.70;84.80;;;;;;6157491;23;19909;-95
2023/04/07 01:50:00;;;;;;;;;;;4.70;84.40;;;;;;6157277;23;19951;-95
2023/04/07 01:52:26;;;;;;;;;;;4.70;84.30;;;;;;6157399;23;19904;-95
2023/04/07 01:54:53;;;;;;;;;;;4.70;83.90;;;;;;6157148;23;19908;-95
2023/04/07 01:57:18;;;;;;;;;;;4.70;82.50;;;;;;6157735;23;20271;-95
2023/04/07 01:59:44;;;;;;;;;;;4.50;81.90;;;;;;6156720;23;19904;-94
2023/04/07 02:02:09;;;;;;;;;;;4.40;82.50;;;;;;6157032;23;19905;-94
2023/04/07 02:04:57;;;;;;;;;;;4.40;83.20;;;;;;6157729;23;19905;-94
2023/04/07 02:07:23;;;;;;;;;;;4.30;83.70;;;;;;6157385;23;19904;-94
2023/04/07 02:09:49;;;;;;;;;;;4.10;84.30;;;;;;6157990;23;20310;-94
2023/04/07 02:12:15;;;;;;;;;;;4.30;84.10;;;;;;6157387;23;19905;-94
2023/04/07 02:14:41;;;;;;;;;;;4.40;83.90;;;;;;6157814;23;19911;-94
2023/04/07 02:17:07;;;;;;;;;;;4.40;83.40;;;;;;6156964;23;20289;-95
2023/04/07 02:19:36;;;;;;;;;;;4.40;82.60;;;;;;6157207;23;19987;-94
2023/04/07 02:22:02;;;;;;;;;;;4.20;82.70;;;;;;6156848;23;19915;-95
2023/04/07 02:24:28;;;;;;;;;;;4.20;83.30;;;;;;6156873;23;20226;-95
2023/04/07 02:26:53;;;;;;;;;;;4.20;83.90;;;;;;6156608;23;19904;-95
2023/04/07 02:29:19;;;;;;;;;;;4.30;83.40;;;;;;6156998;23;19904;-95
2023/04/07 02:31:45;;;;;;;;;;;4.40;83.10;;;;;;6157115;23;19904;-95
2023/04/07 02:34:10;;;;;;;;;;;4.40;82.90;;;;;;6156415;23;19905;-95
2023/04/07 02:36:36;;;;;;;;;;;4.40;83.30;;;;;;6130280;23;19943;-95
2023/04/07 02:39:02;;;;;;;;;;;4.40;83.50;;;;;;6156460;23;19913;-94
2023/04/07 02:41:27;;;;;;;;;;;4.30;84.10;;;;;;6156775;23;20315;-94
2023/04/07 02:43:53;;;;;;;;;;;4.20;85.10;;;;;;6156170;23;19917;-95
2023/04/07 02:46:19;;;;;;;;;;;4.30;85.80;;;;;;6130318;23;19964;-93
2023/04/07 02:48:44;;;;;;;;;;;4.40;86.10;;;;;;6156785;23;20363;-95
2023/04/07 02:51:10;;;;;;;;;;;4.40;86.10;;;;;;6156744;23;19956;-94
2023/04/07 02:53:35;;;;;;;;;;;4.50;85.50;;;;;;6157213;23;19988;-94
2023/04/07 02:56:01;;;;;;;;;;;4.60;85.90;;;;;;6156778;23;19915;-95
2023/04/07 02:58:26;;;;;;;;;;;4.60;84.90;;;;;;6156635;23;19911;-95
2023/04/07 03:00:52;;;;;;;;;;;4.50;85.00;;;;;;6156281;23;20381;-95
2023/04/07 03:03:17;;;;;;;;;;;4.60;84.80;;;;;;6155995;23;19909;-95
2023/04/07 03:05:43;;;;;;;;;;;4.50;84.20;;;;;;6156990;23;19936;-95
2023/04/07 03:08:08;;;;;;;;;;;4.50;84.10;;;;;;6156246;23;20353;-94
2023/04/07 03:10:35;;;;;;;;;;;4.50;83.90;;;;;;6157309;23;20331;-94
2023/04/07 03:13:00;;;;;;;;;;;4.40;83.80;;;;;;6158074;23;19955;-95
2023/04/07 03:15:26;;;;;;;;;;;4.40;83.90;;;;;;6158447;23;19948;-94
2023/04/07 03:17:51;;;;;;;;;;;4.30;84.80;;;;;;6158110;23;20001;-94
2023/04/07 03:20:17;;;;;;;;;;;4.30;84.80;;;;;;6158407;23;19955;-94
2023/04/07 03:22:43;;;;;;;;;;;4.40;84.70;;;;;;6157970;23;20021;-95
2023/04/07 03:25:09;;;;;;;;;;;4.40;84.70;;;;;;6158537;23;19913;-94
2023/04/07 03:27:35;;;;;;;;;;;4.40;84.20;;;;;;6158809;23;19984;-94
2023/04/07 03:30:01;;;;;;;;;;;4.40;84.40;;;;;;6158236;23;19909;-95
2023/04/07 03:32:26;;;;;;;;;;;4.40;84.70;;;;;;6158529;23;19951;-95
2023/04/07 03:34:52;;;;;;;;;;;4.40;85.10;;;;;;6158300;23;19909;-94
2023/04/07 03:37:17;;;;;;;;;;;4.50;85.70;;;;;;6158266;23;19936;-94
2023/04/07 03:39:43;;;;;;;;;;;4.50;86.00;;;;;;6158510;23;19905;-94
2023/04/07 03:42:08;;;;;;;;;;;4.50;85.70;;;;;;6158099;23;19912;-94
2023/04/07 03:44:34;;;;;;;;;;;4.60;85.30;;;;;;6157900;23;19921;-95
2023/04/07 03:47:00;;;;;;;;;;;4.70;84.90;;;;;;6158448;23;19905;-95
2023/04/07 03:49:25;;;;;;;;;;;4.70;84.50;;;;;;6158088;23;19975;-94
2023/04/07 03:51:51;;;;;;;;;;;4.70;83.80;;;;;;6158411;23;20386;-93
2023/04/07 03:54:16;;;;;;;;;;;4.70;84.00;;;;;;6157721;23;20349;-94
2023/04/07 03:56:42;;;;;;;;;;;4.50;84.30;;;;;;6158080;23;20342;-94
2023/04/07 03:59:08;;;;;;;;;;;4.50;84.10;;;;;;6157705;23;19928;-94
2023/04/07 04:01:33;;;;;;;;;;;4.40;84.30;;;;;;6157933;23;19911;-94
2023/04/07 04:03:59;;;;;;;;;;;4.40;84.80;;;;;;6157617;23;20402;-94
2023/04/07 04:06:25;;;;;;;;;;;4.20;85.10;;;;;;6158371;23;20000;-94
2023/04/07 04:08:51;;;;;;;;;;;4.20;85.80;;;;;;6157915;23;19955;-96
2023/04/07 04:11:17;;;;;;;;;;;4.20;85.90;;;;;;6158560;23;19948;-95
2023/04/07 04:13:42;;;;;;;;;;;4.20;85.70;;;;;;6157541;23;20372;-94
2023/04/07 04:16:08;;;;;;;;;;;4.20;85.60;;;;;;6157846;23;19905;-95
2023/04/07 04:18:33;;;;;;;;;;;4.20;85.50;;;;;;6157862;23;20326;-95
2023/04/07 04:20:59;;;;;;;;;;;4.20;85.30;;;;;;6158113;23;19951;-94
2023/04/07 04:23:25;;;;;;;;;;;4.20;85.40;;;;;;6157310;23;19921;-94
2023/04/07 04:25:50;;;;;;;;;;;4.10;85.60;;;;;;6157786;23;20334;-95
2023/04/07 04:28:16;;;;;;;;;;;4.10;85.90;;;;;;6157758;23;19904;-94
2023/04/07 04:30:41;;;;;;;;;;;3.90;87.00;;;;;;6157610;23;19908;-95
2023/04/07 04:33:07;;;;;;;;;;;3.90;87.20;;;;;;6158236;23;19905;-94
2023/04/07 04:35:33;;;;;;;;;;;3.80;88.10;;;;;;6157616;23;19905;-94
2023/04/07 04:37:58;;;;;;;;;;;3.90;87.70;;;;;;6157816;23;19911;-95
2023/04/07 04:40:24;;;;;;;;;;;3.90;87.20;;;;;;6157471;23;19911;-93
2023/04/07 04:42:49;;;;;;;;;;;3.90;87.00;;;;;;6157627;23;19909;-95
2023/04/07 04:45:15;;;;;;;;;;;3.90;86.90;;;;;;6157319;23;19923;-93
2023/04/07 04:47:42;;;;;;;;;;;3.90;86.80;;;;;;6157666;23;20319;-94
2023/04/07 04:50:08;;;;;;;;;;;4.00;86.80;;;;;;6157632;23;20398;-95
2023/04/07 04:52:34;;;;;;;;;;;4.00;86.40;;;;;;6157964;23;19905;-94
2023/04/07 04:55:00;;;;;;;;;;;3.90;85.90;;;;;;6131185;23;19931;-95
2023/04/07 04:57:25;;;;;;;;;;;3.80;85.80;;;;;;6157633;23;19904;-94
2023/04/07 04:59:51;;;;;;;;;;;3.80;86.20;;;;;;6157049;23;19905;-95
2023/04/07 05:02:16;;;;;;;;;;;3.90;85.90;;;;;;6157155;23;19911;-94
2023/04/07 05:04:42;;;;;;;;;;;4.00;85.50;;;;;;6157546;23;19909;-95
2023/04/07 05:07:07;;;;;;;;;;;4.10;85.00;;;;;;6157928;23;19912;-94
2023/04/07 05:09:33;;;;;;;;;;;4.20;84.80;;;;;;6158085;23;19905;-94
2023/04/07 05:11:58;;;;;;;;;;;4.20;84.70;;;;;;6131549;23;19959;-94
2023/04/07 05:14:24;;;;;;;;;;;4.20;84.50;;;;;;6158899;23;19936;-95
2023/04/07 05:16:50;;;;;;;;;;;4.20;84.40;;;;;;6157617;23;20323;-94
2023/04/07 05:19:15;;;;;;;;;;;4.20;84.10;;;;;;6157572;23;19951;-95
2023/04/07 05:21:41;;;;;;;;;;;4.20;84.80;;;;;;6157691;23;19909;-95
2023/04/07 05:24:06;;;;;;;;;;;4.20;84.30;;;;;;6157781;23;19908;-95
2023/04/07 05:26:32;;;;;;;;;;;4.20;84.50;;;;;;6158036;23;20275;-95
2023/04/07 05:28:58;;;;;;;;;;;4.20;85.00;;;;;;6158577;23;19980;-94
2023/04/07 05:31:23;;;;;;;;;;;4.20;85.50;;;;;;6158129;23;19911;-94
2023/04/07 05:33:49;;;;;;;;;;;4.30;85.00;;;;;;6158443;23;20322;-95
2023/04/07 05:36:14;;;;;;;;;;;4.40;85.20;;;;;;6132300;23;19905;-95
2023/04/07 05:38:40;;;;;;;;;;;4.40;84.50;;;;;;6158897;23;19904;-95
2023/04/07 05:41:06;;;;;;;;;;;4.50;83.40;;;;;;6158514;23;19904;-96
2023/04/07 05:43:31;;;;;;;;;;;4.70;82.80;;;;;;6158815;23;19917;-95
2023/04/07 05:45:57;;;;;;;;;;;4.80;82.90;;;;;;6158805;23;20327;-94
2023/04/07 05:48:22;;;;;;;;;;;4.90;82.30;;;;;;6158113;23;19912;-95
2023/04/07 05:50:48;;;;;;;;;;;5.00;81.80;;;;;;6132155;23;19947;-94
2023/04/07 05:53:13;;;;;;;;;;;5.00;81.40;;;;;;6159345;23;19912;-95
2023/04/07 05:55:41;;;;;;;;;;;5.00;81.60;;;;;;6158316;23;19905;-96
2023/04/07 05:58:06;;;;;;;;;;;5.20;81.30;;;;;;6158734;23;19952;-94
2023/04/07 06:00:32;;;;;;;;;;;5.10;81.50;;;;;;6131787;23;19909;-95
2023/04/07 06:02:57;;;;;;;;;;;5.10;82.60;;;;;;6159066;23;19909;-95
2023/04/07 06:05:23;;;;;;;;;;;5.20;82.50;;;;;;6158835;23;20043;-95
2023/04/07 06:07:49;;;;;;;;;;;5.30;82.90;;;;;;6157501;23;20073;-94
2023/04/07 06:10:14;;;;;;;;;;;5.30;82.60;;;;;;6156864;23;19909;-95
2023/04/07 06:12:40;;;;;;;;;;;5.40;82.20;;;;;;6169423;23;19957;-96
2023/04/07 06:15:06;;;;;;;;;;;5.60;81.70;;;;;;6175176;23;19905;-96
2023/04/07 06:17:32;;;;;;;;;;;5.60;81.10;;;;;;6146627;23;20247;-96
2023/04/07 06:19:58;;;;;;;;;;;5.70;81.00;;;;;;6171843;23;19928;-96
2023/04/07 06:22:23;;;;;;;;;;;5.80;80.80;;;;;;6166878;23;19957;-96
2023/04/07 06:24:49;;;;;;;;;;;5.90;80.90;;;;;;6166734;23;19999;-96
2023/04/07 06:27:15;;;;;;;;;;;5.90;81.10;;;;;;6170201;23;20379;-96
2023/04/07 06:29:41;;;;;;;;;;;5.90;80.90;;;;;;6147799;23;19905;-96
2023/04/07 06:32:07;;;;;;;;;;;6.00;80.60;;;;;;6175051;23;19911;-96
2023/04/07 06:37:30;;;;;;;;;;;6.30;81.70;;;;;;6183468;23;19941;-96
2023/04/07 06:39:58;;;;;;;;;;;6.40;81.60;;;;;;6158848;23;19897;-96
2023/04/07 06:42:30;;;;;;;;;;;6.70;80.80;;;;;;6161950;23;19932;-96
2023/04/07 06:44:58;;;;;;;;;;;7.10;80.00;;;;;;6168104;23;19905;-96
2023/04/07 06:47:24;;;;;;;;;;;7.40;79.20;;;;;;6140256;23;19905;-96
2023/04/07 06:49:50;;;;;;;;;;;7.70;78.90;;;;;;6162633;23;19912;-96
2023/04/07 06:52:15;;;;;;;;;;;7.90;76.80;;;;;;6161381;23;19983;-95
2023/04/07 06:54:41;;;;;;;;;;;8.10;76.40;;;;;;6160203;23;19936;-96
2023/04/07 06:57:10;;;;;;;;;;;8.30;75.10;;;;;;6159174;23;19904;-96
2023/04/07 06:59:39;;;;;;;;;;;8.50;74.60;;;;;;6159231;23;19911;-95
2023/04/07 07:02:06;;;;;;;;;;;8.90;73.50;;;;;;6133500;23;19944;-96
2023/04/07 07:04:32;;;;;;;;;;;9.10;72.60;;;;;;6160444;23;19913;-96
2023/04/07 07:06:57;;;;;;;;;;;9.20;71.70;;;;;;6162230;23;19928;-96
2023/04/07 07:09:23;;;;;;;;;;;9.30;71.20;;;;;;6161588;23;19973;-95
2023/04/07 07:11:48;;;;;;;;;;;9.40;71.50;;;;;;6161683;23;19905;-96
2023/04/07 07:14:14;;;;;;;;;;;9.40;71.20;;;;;;6165555;23;19904;-96
2023/04/07 07:16:40;;;;;;;;;;;9.50;70.70;;;;;;6140317;23;19905;-96
2023/04/07 07:19:06;;;;;;;;;;;9.60;70.60;;;;;;6168091;23;19908;-96
2023/04/07 07:21:31;;;;;;;;;;;9.60;70.50;;;;;;6136079;23;19911;-96
2023/04/07 07:23:57;;;;;;;;;;;9.60;71.20;;;;;;6158293;23;19934;-96
2023/04/07 07:26:22;;;;;;;;;;;9.60;70.90;;;;;;6158385;23;19909;-95
2023/04/07 07:28:48;;;;;;;;;;;9.60;71.20;;;;;;6158240;23;20073;-96
2023/04/07 07:31:14;;;;;;;;;;;9.50;71.40;;;;;;6158257;23;19947;-96
2023/04/07 07:33:40;;;;;;;;;;;9.60;71.70;;;;;;6158673;23;19987;-96
2023/04/07 07:36:06;;;;;;;;;;;9.80;71.90;;;;;;6159072;23;19911;-96
2023/04/07 07:38:32;;;;;;;;;;;9.90;71.50;;;;;;6159256;23;19971;-96
2023/04/07 07:40:58;;;;;;;;;;;9.90;71.70;;;;;;6160449;23;19944;-96
2023/04/07 07:43:23;;;;;;;;;;;10.00;72.30;;;;;;6160457;23;20327;-96
2023/04/07 07:45:49;;;;;;;;;;;10.10;72.20;;;;;;6161638;23;20236;-96
2023/04/07 07:48:15;;;;;;;;;;;10.10;71.90;;;;;;6167411;23;19979;-96
2023/04/07 07:50:41;;;;;;;;;;;10.40;71.80;;;;;;6165631;23;19949;-96
2023/04/07 07:53:07;;;;;;;;;;;10.40;71.80;;;;;;6165072;23;19912;-96
2023/04/07 07:55:32;;;;;;;;;;;10.60;71.60;;;;;;6165480;23;19908;-96
2023/04/07 07:57:58;;;;;;;;;;;10.70;71.00;;;;;;6138595;23;19913;-96
2023/04/07 08:00:23;;;;;;;;;;;10.80;71.20;;;;;;6166784;23;19905;-96
2023/04/07 08:02:49;;;;;;;;;;;10.80;70.20;;;;;;6165849;23;19909;-96
2023/04/07 08:05:14;;;;;;;;;;;10.80;70.50;;;;;;6165256;23;19984;-95
2023/04/07 08:07:41;;;;;;;;;;;10.90;70.20;;;;;;6165295;23;19905;-96
2023/04/07 08:10:07;;;;;;;;;;;11.10;69.20;;;;;;6164723;23;19906;-96
2023/04/07 08:12:33;;;;;;;;;;;11.30;69.30;;;;;;6144571;23;19916;-96
2023/04/07 08:14:59;;;;;;;;;;;11.40;69.80;;;;;;6148355;23;19905;-96
2023/04/07 08:17:25;;;;;;;;;;;11.60;70.50;;;;;;6172633;23;19936;-96
2023/04/07 08:19:50;;;;;;;;;;;11.70;68.60;;;;;;6171729;23;19912;-96
2023/04/07 08:22:18;;;;;;;;;;;11.90;68.70;;;;;;6147226;23;19935;-96
2023/04/07 08:24:44;;;;;;;;;;;12.10;67.60;;;;;;6145825;23;20315;-96
2023/04/07 08:27:10;;;;;;;;;;;12.40;67.00;;;;;;6143965;23;19912;-96
2023/04/07 08:29:35;;;;;;;;;;;12.50;65.90;;;;;;6166428;23;19983;-96
2023/04/07 08:32:01;;;;;;;;;;;12.70;65.30;;;;;;6139657;23;19905;-96
2023/04/07 08:34:27;;;;;;;;;;;12.90;64.40;;;;;;6140144;23;19904;-96
2023/04/07 08:36:52;;;;;;;;;;;13.10;63.50;;;;;;6172566;23;19905;-96
2023/04/07 08:39:18;;;;;;;;;;;13.30;63.90;;;;;;6144362;23;19911;-96
2023/04/07 08:41:46;;;;;;;;;;;13.30;62.80;;;;;;6146121;23;19912;-96
2023/04/07 08:44:12;;;;;;;;;;;13.40;62.80;;;;;;6141189;23;19913;-96
2023/04/07 08:46:38;;;;;;;;;;;13.40;61.20;;;;;;6166498;23;20392;-96
2023/04/07 08:49:06;;;;;;;;;;;13.50;60.60;;;;;;6167916;23;19987;-96
2023/04/07 08:51:32;;;;;;;;;;;13.40;60.10;;;;;;6141093;23;19905;-96
2023/04/07 08:54:05;;;;;;;;;;;13.50;59.90;;;;;;6166978;23;19905;-96
2023/04/07 08:56:31;;;;;;;;;;;13.40;58.70;;;;;;6162924;23;19983;-96
2023/04/07 08:58:57;;;;;;;;;;;13.30;58.90;;;;;;6160675;23;19912;-96
2023/04/07 09:01:24;;;;;;;;;;;13.30;58.70;;;;;;6159351;23;19912;-96
2023/04/07 09:03:49;;;;;;;;;;;13.20;58.40;;;;;;6158955;23;19913;-95
2023/04/07 09:06:16;;;;;;;;;;;13.10;58.90;;;;;;6168887;23;19905;-96
2023/04/07 09:08:42;;;;;;;;;;;13.10;59.10;;;;;;6153858;23;19940;-96
2023/04/07 09:11:11;;;;;;;;;;;13.20;59.80;;;;;;6180682;23;19904;-96
2023/04/07 09:13:39;;;;;;;;;;;13.30;58.60;;;;;;6154333;23;19904;-96
2023/04/07 09:16:06;;;;;;;;;;;13.40;57.70;;;;;;6155475;23;19905;-96
2023/04/07 09:18:33;;;;;;;;;;;13.30;57.40;;;;;;6152207;23;19913;-96
2023/04/07 09:21:03;;;;;;;;;;;13.40;57.50;;;;;;6172885;23;19990;-96
2023/04/07 09:23:36;;;;;;;;;;;13.50;57.90;;;;;;6147207;23;20020;-95
2023/04/07 09:26:18;;;;;;;;;;;13.60;57.50;;;;;;6177765;23;19904;-96
2023/04/07 09:28:44;;;;;;;;;;;13.80;57.10;;;;;;6152284;23;19932;-96
2023/04/07 09:31:10;;;;;;;;;;;13.90;54.70;;;;;;6151784;23;19905;-96
2023/04/07 09:33:36;;;;;;;;;;;14.00;52.20;;;;;;6149346;23;19904;-95
2023/04/07 09:36:03;;;;;;;;;;;13.90;50.30;;;;;;6149383;23;20238;-96
2023/04/07 09:38:33;;;;;;;;;;;13.90;49.20;;;;;;6147297;23;19904;-96
2023/04/07 09:41:09;;;;;;;;;;;13.90;50.30;;;;;;6148466;23;19904;-96
2023/04/07 09:43:38;;;;;;;;;;;13.90;50.10;;;;;;6144615;23;19917;-96
2023/04/07 09:46:14;;;;;;;;;;;13.90;51.60;;;;;;6145462;23;19983;-96
2023/04/07 09:48:40;;;;;;;;;;;14.00;50.80;;;;;;6119828;23;19905;-96
2023/04/07 09:51:11;;;;;;;;;;;14.10;50.00;;;;;;6119725;23;19905;-96
2023/04/07 09:53:43;;;;;;;;;;;14.30;51.00;;;;;;6119671;23;19905;-95
2023/04/07 09:56:10;;;;;;;;;;;14.40;49.80;;;;;;6143882;23;20316;-96
2023/04/07 09:58:42;;;;;;;;;;;14.40;50.40;;;;;;6145695;23;19912;-96
2023/04/07 10:01:08;;;;;;;;;;;14.40;50.30;;;;;;6119847;23;19912;-96
2023/04/07 10:03:35;;;;;;;;;;;14.60;49.00;;;;;;6118171;23;19909;-96
2023/04/07 10:06:00;;;;;;;;;;;14.70;47.00;;;;;;6144553;23;19905;-96
2023/04/07 10:08:27;;;;;;;;;;;14.80;47.60;;;;;;6143874;23;19905;-96
2023/04/07 10:10:54;;;;;;;;;;;14.90;48.70;;;;;;6116228;23;19915;-96
2023/04/07 10:13:20;;;;;;;;;;;14.90;48.00;;;;;;6115888;23;19928;-95
2023/04/07 10:15:46;;;;;;;;;;;14.80;44.80;;;;;;6117262;23;19927;-96
2023/04/07 10:18:13;;;;;;;;;;;14.80;46.10;;;;;;6137473;23;19905;-96
2023/04/07 10:20:40;;;;;;;;;;;14.80;42.10;;;;;;6110409;23;19928;-96
2023/04/07 10:23:12;;;;;;;;;;;14.80;38.80;;;;;;6137998;23;19909;-96
2023/04/07 10:25:39;;;;;;;;;;;14.70;39.70;;;;;;6116441;23;19905;-96
2023/04/07 10:28:06;;;;;;;;;;;14.80;41.60;;;;;;6144145;23;19929;-96
2023/04/07 10:30:33;;;;;;;;;;;14.90;43.30;;;;;;6141801;23;20028;-96
2023/04/07 10:32:58;;;;;;;;;;;14.90;42.60;;;;;;6116779;23;19905;-96
2023/04/07 10:35:24;;;;;;;;;;;14.90;42.80;;;;;;6139658;23;20389;-96
2023/04/07 10:38:15;;;;;;;;;;;14.90;41.60;;;;;;6143691;23;19928;-96
2023/04/07 10:40:41;;;;;;;;;;;14.90;43.70;;;;;;6117959;23;19905;-96
2023/04/07 10:43:11;;;;;;;;;;;14.90;41.40;;;;;;6168048;23;19917;-96
2023/04/07 10:45:46;;;;;;;;;;;15.00;40.60;;;;;;6170632;23;19956;-95
2023/04/07 10:48:12;;;;;;;;;;;15.00;43.70;;;;;;6171712;23;19905;-95
2023/04/07 10:50:37;;;;;;;;;;;15.10;43.80;;;;;;6145778;23;19911;-96
2023/04/07 10:53:07;;;;;;;;;;;15.30;42.80;;;;;;6146970;23;19909;-96
2023/04/07 10:55:32;;;;;;;;;;;15.50;43.30;;;;;;6146970;23;19909;-96
2023/04/07 10:58:17;;;;;;;;;;;15.60;42.40;;;;;;6148022;23;19979;-95
2023/04/07 11:01:05;;;;;;;;;;;15.80;41.50;;;;;;6145293;23;19911;-96
2023/04/07 11:03:32;;;;;;;;;;;15.80;40.90;;;;;;6169585;23;19908;-96
2023/04/07 11:06:08;;;;;;;;;;;15.70;40.30;;;;;;6145271;23;19905;-96
2023/04/07 11:08:35;;;;;;;;;;;15.70;41.20;;;;;;6170789;23;19908;-96
2023/04/07 11:11:01;;;;;;;;;;;15.60;40.10;;;;;;6171494;23;19911;-96
2023/04/07 11:13:27;;;;;;;;;;;15.70;39.50;;;;;;6149467;23;19905;-96
2023/04/07 11:15:53;;;;;;;;;;;15.80;40.10;;;;;;6176082;23;19905;-96
2023/04/07 11:18:20;;;;;;;;;;;15.80;41.40;;;;;;6150665;23;19904;-96
2023/04/07 11:20:57;;;;;;;;;;;16.00;40.60;;;;;;6151836;23;19904;-96
2023/04/07 11:23:24;;;;;;;;;;;16.20;37.60;;;;;;6176999;23;19909;-96
2023/04/07 11:25:51;;;;;;;;;;;16.30;38.10;;;;;;6151595;23;19983;-96
2023/04/07 11:28:20;;;;;;;;;;;16.50;39.20;;;;;;6168577;23;19960;-96
2023/04/07 11:30:48;;;;;;;;;;;16.60;39.00;;;;;;6145701;23;19905;-96
2023/04/07 11:33:18;;;;;;;;;;;16.70;38.60;;;;;;6147384;23;19909;-96
2023/04/07 11:35:48;;;;;;;;;;;16.70;37.90;;;;;;6143795;23;20039;-96
2023/04/07 11:38:15;;;;;;;;;;;16.70;37.90;;;;;;6141499;23;19948;-96
2023/04/07 11:40:41;;;;;;;;;;;16.80;38.20;;;;;;6144580;23;19904;-96
2023/04/07 11:43:17;;;;;;;;;;;16.90;37.40;;;;;;6165498;23;19923;-96
2023/04/07 11:45:42;;;;;;;;;;;16.80;36.00;;;;;;6171945;23;19973;-96
2023/04/07 11:48:34;;;;;;;;;;;16.80;35.40;;;;;;6174426;23;19904;-95
2023/04/07 11:51:01;;;;;;;;;;;17.00;37.30;;;;;;6136177;23;19948;-95
2023/04/07 11:53:29;;;;;;;;;;;17.00;35.70;;;;;;6162874;23;19905;-96
2023/04/07 11:56:06;;;;;;;;;;;16.90;34.50;;;;;;6135102;23;19905;-95
2023/04/07 11:58:32;;;;;;;;;;;16.80;35.00;;;;;;6165069;23;19911;-96
2023/04/07 12:01:02;;;;;;;;;;;16.80;35.80;;;;;;6140656;23;19904;-96
2023/04/07 12:03:28;;;;;;;;;;;16.80;34.70;;;;;;6140602;23;19987;-95
2023/04/07 12:05:54;;;;;;;;;;;16.60;36.50;;;;;;6141115;23;19940;-96
2023/04/07 12:08:20;;;;;;;;;;;16.60;34.60;;;;;;6163286;23;19904;-96
2023/04/07 12:10:45;;;;;;;;;;;16.60;35.70;;;;;;6163974;23;19988;-96
2023/04/07 12:13:12;;;;;;;;;;;16.60;37.10;;;;;;6163734;23;19928;-96
2023/04/07 12:15:38;;;;;;;;;;;16.80;36.60;;;;;;6139881;23;20008;-96
2023/04/07 12:18:04;;;;;;;;;;;16.90;35.80;;;;;;6172511;23;19908;-96
2023/04/07 12:20:30;;;;;;;;;;;17.10;37.70;;;;;;6168019;23;19911;-96
2023/04/07 12:22:56;;;;;;;;;;;17.40;34.30;;;;;;6166514;23;19909;-96
2023/04/07 12:25:22;;;;;;;;;;;17.50;34.90;;;;;;6164547;23;19912;-95
2023/04/07 12:27:47;;;;;;;;;;;17.60;35.10;;;;;;6165444;23;20231;-95
2023/04/07 12:30:13;;;;;;;;;;;17.70;37.30;;;;;;6165835;23;20357;-96
2023/04/07 12:32:38;;;;;;;;;;;17.80;34.60;;;;;;6133493;23;19905;-96
2023/04/07 12:35:04;;;;;;;;;;;17.80;35.10;;;;;;6163181;23;20246;-96
2023/04/07 12:37:31;;;;;;;;;;;17.90;34.60;;;;;;6172197;23;19905;-96
2023/04/07 12:39:57;;;;;;;;;;;18.00;34.00;;;;;;6141438;23;19997;-96
2023/04/07 12:42:23;;;;;;;;;;;17.90;34.10;;;;;;6138010;23;19967;-96
2023/04/07 12:44:48;;;;;;;;;;;17.80;33.80;;;;;;6139091;23;19925;-96
2023/04/07 12:47:14;;;;;;;;;;;17.80;33.60;;;;;;6139286;23;19952;-96
2023/04/07 12:49:40;;;;;;;;;;;17.80;33.10;;;;;;6140156;23;19912;-96
2023/04/07 12:52:06;;;;;;;;;;;17.80;34.70;;;;;;6139964;23;19943;-96
2023/04/07 12:54:32;;;;;;;;;;;17.90;35.20;;;;;;6147172;23;19905;-96
2023/04/07 12:56:58;;;;;;;;;;;18.10;35.10;;;;;;6146466;23;19905;-96
2023/04/07 12:59:24;;;;;;;;;;;18.20;34.30;;;;;;6144695;23;19909;-96
2023/04/07 13:01:50;;;;;;;;;;;18.00;33.90;;;;;;6140894;23;19965;-96
2023/04/07 13:04:16;;;;;;;;;;;18.10;33.50;;;;;;6138561;23;19909;-96
2023/04/07 13:06:42;;;;;;;;;;;18.00;35.20;;;;;;6135913;23;20382;-95
2023/04/07 13:09:08;;;;;;;;;;;17.90;35.10;;;;;;6132757;23;19905;-96
2023/04/07 13:11:33;;;;;;;;;;;17.70;36.50;;;;;;6139383;23;19933;-96
2023/04/07 13:13:59;;;;;;;;;;;17.70;34.90;;;;;;6141307;23;19912;-96
2023/04/07 13:16:25;;;;;;;;;;;17.70;37.00;;;;;;6144117;23;19905;-95
2023/04/07 13:18:51;;;;;;;;;;;17.70;34.80;;;;;;6143868;23;19909;-96
2023/04/07 13:21:17;;;;;;;;;;;17.80;34.50;;;;;;6137947;23;19909;-96
2023/04/07 13:23:42;;;;;;;;;;;17.70;35.00;;;;;;6132303;23;20327;-95
2023/04/07 13:26:08;;;;;;;;;;;17.50;35.50;;;;;;6135054;23;20339;-96
2023/04/07 13:28:33;;;;;;;;;;;17.30;35.90;;;;;;6139043;23;19932;-96
2023/04/07 13:30:59;;;;;;;;;;;17.30;37.20;;;;;;6140220;23;19912;-96
2023/04/07 13:33:25;;;;;;;;;;;17.30;36.60;;;;;;6141040;23;20035;-96
2023/04/07 13:35:51;;;;;;;;;;;17.30;36.20;;;;;;6143973;23;19944;-96
2023/04/07 13:38:20;;;;;;;;;;;17.50;36.00;;;;;;6140044;23;20410;-96
2023/04/07 13:40:48;;;;;;;;;;;17.50;39.30;;;;;;6142995;23;19905;-96
2023/04/07 13:43:14;;;;;;;;;;;17.60;39.70;;;;;;6150671;23;19921;-96
2023/04/07 13:45:40;;;;;;;;;;;17.80;39.40;;;;;;6149560;23;19904;-96
2023/04/07 13:48:06;;;;;;;;;;;18.10;39.70;;;;;;6148548;23;20204;-96
2023/04/07 13:50:35;;;;;;;;;;;18.40;39.40;;;;;;6145820;23;19911;-95
2023/04/07 13:53:01;;;;;;;;;;;18.70;39.40;;;;;;6144189;23;19904;-96
2023/04/07 13:55:26;;;;;;;;;;;19.00;38.40;;;;;;6172006;23;19905;-96
2023/04/07 13:57:55;;;;;;;;;;;19.10;37.90;;;;;;6150115;23;19912;-96
2023/04/07 14:00:21;;;;;;;;;;;19.30;38.00;;;;;;6151651;23;19924;-96
2023/04/07 14:02:49;;;;;;;;;;;19.50;37.70;;;;;;6177136;23;20338;-96
2023/04/07 14:05:15;;;;;;;;;;;19.80;38.30;;;;;;6177180;23;19912;-96
2023/04/07 14:07:41;;;;;;;;;;;20.20;38.00;;;;;;6150413;23;19904;-96
2023/04/07 14:10:07;;;;;;;;;;;20.50;36.60;;;;;;6149831;23;20230;-96
2023/04/07 14:12:33;;;;;;;;;;;20.80;36.00;;;;;;6149716;23;19905;-96
2023/04/07 14:14:59;;;;;;;;;;;21.00;36.10;;;;;;6172466;23;19905;-96
2023/04/07 14:17:26;;;;;;;;;;;21.30;35.30;;;;;;6177308;23;19904;-96
2023/04/07 14:19:54;;;;;;;;;;;21.80;34.90;;;;;;6152035;23;19905;-96
2023/04/07 14:22:20;;;;;;;;;;;22.10;34.80;;;;;;6149838;23;19905;-96
2023/04/07 14:24:47;;;;;;;;;;;22.50;33.30;;;;;;6175907;23;19915;-96